Latest Coastal Weather Observations for Browse Island

IDD60701

Issued at 4:51 am CST Tuesday 23 December 2014 (issued every 10 minutes, with the page automatically refreshed every 10 minutes)

About coastal observations | Map of coastal stations | Coastal observations for NT | Marine services | Other Formats
Station Details ID: 200784 Name: BROWSE ISLAND Lat: -14.11 Lon: 123.55 Height: 3.7 m
Data from the previous 72 hours. | See also: Recent months for locations in Northern Territory
Date/Time
CST
Temp

°C
Wind Pressure Rain
since 9am
mm
Weather Cloud Vis
km
Sea
Height
m
Swell
Dir
 
Speed
knots
Gust
knots
hPa Trend Height
m
Period
s
Dir
23/04:30am 29.5 SSW 3 4 1006.8 - - - - - - - - -
23/04:00am 29.6 SSE 3 4 1006.6 - - - - - - - - -
23/03:30am 29.8 SSW 5 7 1006.8 - - - - - - - - -
23/03:00am 29.7 SSW 5 7 1006.9 - - - - - - - - -
23/02:30am 29.9 SSW 6 7 1007.1 - - - - - - - - -
23/02:00am 29.8 S 5 6 1007.2 - - - - - - - - -
23/01:30am 29.8 SSW 5 7 1007.0 - - - - - - - - -
23/01:00am 29.9 S 6 7 1007.2 - - - - - - - - -
23/12:30am 29.9 S 7 8 1007.5 - - - - - - - - -
23/12:00am 30.1 SSW 6 8 1007.9 - - - - - - - - -
 
Date/Time
CST
Temp

°C
Wind Pressure Rain
since 9am
mm
Weather Cloud Vis
km
Sea
Height
m
Swell
Dir
 
Speed
knots
Gust
knots
hPa Trend Height
m
Period
s
Dir
22/11:30pm 30.2 S 4 6 1007.8 - - - - - - - - -
22/11:00pm 30.3 SSW 4 5 1007.8 - - - - - - - - -
22/10:30pm 30.1 CALM 0 0 1007.6 - - - - - - - - -
22/10:00pm 30.3 SW 2 4 1007.3 - - - - - - - - -
22/09:30pm 30.3 S 3 4 1007.1 - - - - - - - - -
22/09:00pm 30.3 SSW 4 5 1006.8 - - - - - - - - -
22/08:30pm 30.3 SW 4 5 1006.6 - - - - - - - - -
22/08:00pm 30.3 SW 4 5 1006.1 - - - - - - - - -
22/07:30pm 30.5 W 4 5 1005.5 - - - - - - - - -
22/07:00pm 30.9 WSW 3 4 1005.4 - - - - - - - - -
22/06:30pm 31.2 WSW 4 5 1005.3 - - - - - - - - -
22/06:00pm 31.4 SW 4 6 1005.3 - - - - - - - - -
22/05:30pm 31.5 WSW 5 6 1005.4 - - - - - - - - -
22/05:00pm 30.7 SW 7 9 1005.8 - - - - - - - - -
22/04:30pm 31.2 SW 6 8 1006.3 - - - - - - - - -
22/04:00pm 31.3 SW 5 7 1006.5 - - - - - - - - -
22/03:30pm 31.7 SSW 4 5 1006.6 - - - - - - - - -
22/03:00pm 31.5 SW 4 5 1006.8 - - - - - - - - -
22/02:30pm 31.4 S 4 5 1007.1 - - - - - - - - -
22/02:00pm 30.8 SSW 6 8 1007.5 - - - - - - - - -
22/01:30pm 30.6 S 8 9 1008.1 - - - - - - - - -
22/01:00pm 30.6 S 9 11 1008.4 - - - - - - - - -
22/12:30pm 30.2 S 9 11 1008.6 - - - - - - - - -
22/12:00pm 30.4 S 9 10 1009.0 - - - - - - - - -
22/11:30am 30.7 S 7 8 1009.1 - - - - - - - - -
22/11:00am 30.4 SSW 8 9 1009.3 - - - - - - - - -
22/10:30am 30.2 S 8 9 1009.1 - - - - - - - - -
22/10:00am 30.2 S 8 10 1009.0 - - - - - - - - -
22/09:30am 30.0 S 8 11 1008.6 - - - - - - - - -
22/09:00am 29.9 S 9 11 1008.3 - - - - - - - - -
22/08:30am 29.7 SSW 9 11 1008.1 - - - - - - - - -
22/08:00am 29.6 S 7 9 1007.8 - - - - - - - - -
22/07:30am 29.6 SSW 7 9 1007.5 - - - - - - - - -
22/07:00am 29.5 SSW 7 8 1007.0 - - - - - - - - -
22/06:30am 29.5 SSW 7 8 1006.7 - - - - - - - - -
22/06:00am 29.5 SSW 8 9 1006.3 - - - - - - - - -
22/05:30am 29.6 SW 6 8 1006.1 - - - - - - - - -
22/05:00am 29.5 SW 6 7 1006.0 - - - - - - - - -
22/04:30am 29.6 SW 6 7 1006.1 - - - - - - - - -
22/04:00am 29.6 WSW 5 6 1005.9 - - - - - - - - -
22/03:30am 29.7 SW 6 8 1005.9 - - - - - - - - -
22/03:00am 29.7 SW 7 8 1006.2 - - - - - - - - -
22/02:30am 29.6 SW 6 7 1006.3 - - - - - - - - -
22/02:00am 29.7 SW 6 7 1006.3 - - - - - - - - -
22/01:30am 29.9 SSW 6 7 1006.4 - - - - - - - - -
22/01:00am 29.9 SSW 6 8 1006.8 - - - - - - - - -
22/12:30am 29.9 SSW 7 8 1007.1 - - - - - - - - -
22/12:00am 29.9 SSW 6 8 1007.3 - - - - - - - - -
 
Date/Time
CST
Temp

°C
Wind Pressure Rain
since 9am
mm
Weather Cloud Vis
km
Sea
Height
m
Swell
Dir
 
Speed
knots
Gust
knots
hPa Trend Height
m
Period
s
Dir
21/11:30pm 29.9 SW 5 7 1007.3 - - - - - - - - -
21/11:00pm 30.0 SSW 5 6 1007.5 - - - - - - - - -
21/10:30pm 30.0 SSW 5 7 1007.4 - - - - - - - - -
21/10:00pm 30.0 SSW 5 7 1007.1 - - - - - - - - -
21/09:30pm 30.0 SSW 7 8 1006.9 - - - - - - - - -
21/09:00pm 30.1 SSW 7 9 1006.6 - - - - - - - - -
21/08:30pm 30.1 SW 8 9 1006.4 - - - - - - - - -
21/08:00pm 30.2 SSW 8 9 1006.1 - - - - - - - - -
21/07:30pm 30.3 SSW 9 11 1005.8 - - - - - - - - -
21/07:00pm 30.1 SSW 10 11 1005.6 - - - - - - - - -
21/06:30pm 30.2 SSW 10 11 1005.3 - - - - - - - - -
21/06:00pm 30.2 SSW 10 12 1005.2 - - - - - - - - -
21/05:30pm 30.3 S 11 13 1005.2 - - - - - - - - -
21/05:00pm 30.3 S 9 12 1005.2 - - - - - - - - -
21/04:30pm 30.3 SSW 9 11 1005.3 - - - - - - - - -
21/04:00pm 30.5 SW 8 9 1005.5 - - - - - - - - -
21/03:30pm 30.4 SSW 6 8 1006.2 - - - - - - - - -
21/03:00pm 30.4 SSW 8 9 1006.8 - - - - - - - - -
21/02:30pm 30.2 SSW 8 10 1007.2 - - - - - - - - -
21/02:00pm 30.2 SSW 8 10 1007.7 - - - - - - - - -
21/01:30pm 30.4 SSW 9 10 1008.2 - - - - - - - - -
21/01:00pm 30.2 SSW 8 10 1008.5 - - - - - - - - -
21/12:30pm 30.3 SSW 8 9 1008.6 - - - - - - - - -
21/12:00pm 30.0 SW 8 10 1008.8 - - - - - - - - -
21/11:30am 30.2 SW 5 7 1008.8 - - - - - - - - -
21/11:00am 30.5 SSW 6 7 1008.9 - - - - - - - - -
21/10:30am 30.3 SSW 6 7 1009.0 - - - - - - - - -
21/10:00am 30.5 WSW 4 6 1009.1 - - - - - - - - -
21/09:30am 30.2 SW 5 6 1009.1 - - - - - - - - -
21/09:00am 29.9 SW 5 6 1008.9 - - - - - - - - -
21/08:30am 29.6 SW 5 6 1008.6 - - - - - - - - -
21/08:00am 29.4 SW 6 7 1008.3 - - - - - - - - -
21/07:30am 29.3 WSW 5 6 1007.9 - - - - - - - - -
21/07:00am 29.3 WSW 6 8 1007.5 - - - - - - - - -
21/06:30am 29.3 WSW 6 7 1007.2 - - - - - - - - -
21/06:00am 29.3 W 5 6 1007.1 - - - - - - - - -
21/05:30am 29.3 W 3 5 1006.8 - - - - - - - - -
21/05:00am 29.3 W 4 5 1006.4 - - - - - - - - -
21/04:30am 29.4 SW 4 5 1006.6 - - - - - - - - -
21/04:00am 29.4 WSW 3 4 1006.5 - - - - - - - - -
21/03:30am 29.4 CALM 0 0 1006.6 - - - - - - - - -
21/03:00am 29.5 S 3 4 1006.5 - - - - - - - - -
21/02:30am 29.7 S 3 4 1006.8 - - - - - - - - -
21/02:00am 29.6 SSE 3 4 1007.3 - - - - - - - - -
21/01:30am 29.7 ESE 2 4 1007.8 - - - - - - - - -
21/01:00am 29.8 SE 3 4 1008.2 - - - - - - - - -
21/12:30am 29.9 SE 5 6 1008.9 - - - - - - - - -
21/12:00am 29.9 E 3 4 1009.0 - - - - - - - - -
 
Date/Time
CST
Temp

°C
Wind Pressure Rain
since 9am
mm
Weather Cloud Vis
km
Sea
Height
m
Swell
Dir
 
Speed
knots
Gust
knots
hPa Trend Height
m
Period
s
Dir
20/11:30pm 30.0 SE 2 3 1008.9 - - - - - - - - -
20/11:00pm 30.0 E 1 3 1008.8 - - - - - - - - -
20/10:30pm 30.1 SE 4 5 1008.7 - - - - - - - - -
20/10:00pm 30.1 SE 4 5 1008.3 - - - - - - - - -
20/09:30pm 29.9 SE 5 6 1008.0 - - - - - - - - -
20/09:00pm 29.9 SE 7 8 1007.9 - - - - - - - - -
20/08:30pm 29.9 SSE 8 9 1007.4 - - - - - - - - -
20/08:00pm 29.8 SSE 8 10 1006.8 - - - - - - - - -
20/07:30pm 29.8 S 10 13 1006.3 - - - - - - - - -
20/07:00pm 29.8 SSE 12 14 1006.0 - - - - - - - - -
20/06:30pm 30.0 SSE 12 14 1006.2 - - - - - - - - -
20/06:00pm 30.4 S 12 14 1005.8 - - - - - - - - -
20/05:30pm 30.2 S 12 15 1006.0 - - - - - - - - -
20/05:00pm 30.1 S 14 16 1006.2 - - - - - - - - -
20/04:30pm 30.2 S 12 15 1006.4 - - - - - - - - -
20/04:00pm 30.7 S 11 13 1006.8 - - - - - - - - -
20/03:30pm 30.4 S 10 11 1006.9 - - - - - - - - -
20/03:00pm 30.5 S 10 12 1007.4 - - - - - - - - -
20/02:30pm 30.8 S 7 9 1007.5 - - - - - - - - -
20/02:00pm 30.5 S 9 11 1007.9 - - - - - - - - -
20/01:30pm 30.5 S 9 11 1008.6 - - - - - - - - -
20/01:00pm 30.6 S 8 9 1008.9 - - - - - - - - -
20/12:30pm 30.6 S 6 8 1009.2 - - - - - - - - -
20/12:00pm 30.5 S 6 8 1009.5 - - - - - - - - -
20/11:30am 30.5 S 7 8 1010.0 - - - - - - - - -
20/11:00am 30.4 S 7 8 1010.3 - - - - - - - - -
20/10:30am 30.6 SSE 7 8 1010.6 - - - - - - - - -
20/10:00am 30.8 SSE 7 9 1010.6 - - - - - - - - -
20/09:30am 30.2 SSE 8 9 1010.5 - - - - - - - - -
20/09:00am 30.0 S 7 8 1009.9 - - - - - - - - -
20/08:30am 29.9 S 7 7 1009.6 - - - - - - - - -
20/08:00am 29.9 S 7 8 1009.3 - - - - - - - - -
20/07:30am 29.8 S 7 8 1009.0 - - - - - - - - -
20/07:00am 29.6 SSW 7 8 1008.4 - - - - - - - - -
20/06:30am 29.6 SW 7 8 1008.2 - - - - - - - - -

Other Formats:

Comma delimited format used in spreadsheet applications
http://www.bom.gov.au/fwo/IDD60701/IDD60701.94103.axf

JavaScript Object Notation format (JSON) in row-major order
http://www.bom.gov.au/fwo/IDD60701/IDD60701.94103.json